Ginys del Meteocat

Dades de l'estació automàtica Riudecanyes

?
?
Resum diari 23:00 TU
Dades diàries de l'estació meteorològica
Temperatura mitjana 9.2 °C
Temperatura màxima 14.5 °C 12:44 TU
Temperatura mínima 5.4 °C 6:51 TU
Humitat relativa mitjana 82%
Precipitació acumulada 0.0 mm
Ratxa màxima del vent (10 m) 20.2 km/h - 334º 5:32 TU
Irradiació solar global 9.9 MJ/m2

El tram horari està expressat en Temps Universal (TU). Cal sumar una hora en horari d'hivern i dues en horari d'estiu per passar a l'hora oficial.

Riudecanyes

Metadades estació meteorol´gica
Municipi Riudecanyes
Comarca Baix Camp
Altitud 170 m
Data alta 06.02.2019
Estat actual Operativa
Dades de període
Període
TU
TM
°C
TX
°C
TN
°C
HRM
%
PPT
mm
VVM (10 m)
km/h
DVM (10 m)
graus
VVX (10 m)
km/h
RS
W/m2
00:00 - 00:30 6.1 6.2 6.1 89 0.0 11.5 331 17.3 0
00:30 - 01:00 6.2 6.3 6.1 88 0.0 10.8 328 17.3 0
01:00 - 01:30 6.0 6.1 5.9 89 0.0 12.6 331 18.4 0
01:30 - 02:00 5.9 6.1 5.8 89 0.0 12.2 331 17.6 0
02:00 - 02:30 6.1 6.3 5.8 88 0.0 10.8 328 19.1 0
02:30 - 03:00 6.1 6.4 5.8 88 0.0 10.4 328 15.5 0
03:00 - 03:30 5.9 6.3 5.7 88 0.0 12.2 329 18.7 0
03:30 - 04:00 6.1 6.3 5.8 88 0.0 12.6 333 18.4 0
04:00 - 04:30 6.4 6.6 6.3 88 0.0 12.6 330 18.4 0
04:30 - 05:00 6.4 6.6 6.0 88 0.0 11.5 331 16.9 0
05:00 - 05:30 5.9 6.1 5.6 90 0.0 11.5 331 18.0 0
05:30 - 06:00 5.7 5.9 5.6 90 0.0 11.2 332 20.2 0
06:00 - 06:30 5.8 6.1 5.5 90 0.0 9.4 330 15.5 0
06:30 - 07:00 5.6 5.8 5.4 90 0.0 9.7 331 15.8 0
07:00 - 07:30 6.1 6.5 5.7 89 0.0 10.8 328 15.8 5
07:30 - 08:00 6.6 6.9 6.2 87 0.0 10.1 326 14.8 38
08:00 - 08:30 7.0 7.5 6.7 86 0.0 9.4 330 15.1 100
08:30 - 09:00 8.4 9.4 7.5 82 0.0 7.6 331 13.0 180
09:00 - 09:30 10.3 11.4 9.3 76 0.0 4.7 334 9.0 258
09:30 - 10:00 12.5 13.1 11.5 66 0.0 2.2 208 5.8 328
10:00 - 10:30 13.0 13.2 12.8 65 0.0 4.7 187 8.6 386
10:30 - 11:00 13.2 13.6 12.8 67 0.0 5.0 169 10.8 451
11:00 - 11:30 13.7 13.9 13.4 68 0.0 4.7 160 9.7 484
11:30 - 12:00 13.8 14.1 13.4 69 0.0 5.4 168 10.4 490
12:00 - 12:30 14.1 14.3 13.8 66 0.0 5.4 166 10.1 495
12:30 - 13:00 14.2 14.5 13.9 65 0.0 8.6 179 15.1 498
13:00 - 13:30 13.8 14.1 13.5 68 0.0 9.7 170 15.1 451
13:30 - 14:00 13.6 14.0 13.4 67 0.0 8.6 172 14.8 419
14:00 - 14:30 13.6 14.0 13.3 68 0.0 6.1 168 11.9 320
14:30 - 15:00 13.3 13.5 13.0 69 0.0 5.8 171 10.1 265
15:00 - 15:30 12.9 13.1 12.7 71 0.0 4.3 168 9.7 183
15:30 - 16:00 12.4 12.7 12.2 72 0.0 3.6 169 7.9 124
16:00 - 16:30 11.7 12.2 11.3 78 0.0 2.9 115 6.5 76
16:30 - 17:00 10.7 11.2 10.1 85 0.0 2.9 89 4.3 15
17:00 - 17:30 9.5 10.1 9.3 91 0.0 4.3 349 9.0 0
17:30 - 18:00 8.9 9.4 8.7 91 0.0 8.3 333 14.8 0
18:00 - 18:30 8.8 8.8 8.7 89 0.0 9.7 334 14.8 0
18:30 - 19:00 8.7 8.8 8.5 88 0.0 7.9 327 14.0 0
19:00 - 19:30 8.3 8.7 7.9 89 0.0 10.1 329 15.1 0
19:30 - 20:00 7.9 8.2 7.6 90 0.0 9.0 331 14.4 0
20:00 - 20:30 8.1 8.5 7.7 89 0.0 7.9 329 14.4 0
20:30 - 21:00 8.6 8.7 8.4 87 0.0 6.8 326 10.8 0
21:00 - 21:30 8.4 8.8 8.1 89 0.0 6.1 329 9.4 0
21:30 - 22:00 8.3 8.5 8.1 90 0.0 7.9 329 13.0 0
22:00 - 22:30 8.6 9.0 8.1 89 0.0 7.9 327 14.4 0
22:30 - 23:00 8.9 9.0 8.8 88 0.0 6.5 329 9.7 0
23:00 - 23:30 8.8 8.9 8.7 89 0.0 8.3 328 13.0 0

Les dades en taronja només han passat un control de qualitat automàtic. Resta pendent la seva validació definitiva.